X  Κλείσε Στοιχεία αεροπορικών μετεωρολογικών δεδομένων METAR     EIDW Dublin Airport
θερμοκρασία
19°C θερμοκρασία
11°C Σημείο δρόσου
60% Υγρασία



Ανεμος
6 MPH
10 KM/H
3 M/S
5 KTS



110°
ANA
Τρέχουσες συνθήκες

Σαφή Σαφή
πίεση 1023.92 (hPa) - 30.24 (inHg)
Ορατότητα 6.2 (μίλι) - 10 (km)
Aεροδρόμιο
Κωδικός αεροδρομίου EIDW

Τοποθεσία: Dublin Airport
Απόσταση: 17 (mi)

Metar:
EIDW 102000Z 11005KT 080V140 CAVOK 19/11 Q1024 NOSIG

ώρα: 10-08-2022 21:00 IST